Portada
METAR-TAF:

METAR-TAF

Aeroports :

Maurici, Maurici

latitud: 20-26S, longitud: 057-40E, altitud: 55 m

Observació

L'informe es va fer fa 27 minuts, a les 16:00 UTC
Vent 10 kt del Est
Temperatura 24°C
Humitat 83%
Pressió 1021 hPa
Visibilitat 10 km o més
Núvols disperses a una alçada de 1700 ft
xàfecs en les proximitats

METAR: FIMP 271600Z 09010KT 9999 VCSH SCT017 24/21 Q1021

Hora: 20:27 (16:27 UTC)

Pronòstic

L'informe es va fer fa 4 hores i 37 minuts, a les 11:50 UTC
Pronòstic vàlid del 27 a les 12 UTC al 28 a les 18 UTC
Vent 12 kt del Est amb ràfegues de 25 kt
Visibilitat 10 km o més
Núvols disperses a una alçada de 1800 ft
Probabilitat 30% :
Temporalment
l' 27 a les 15 UTC al 27 a les 20 UTC
Visibilitat: 7000 m
Cel ennuvolat a una alçada de 1500 ft
xàfecs de pluja

TAF: FIMP 271150Z 2712/2818 09012G25KT 9999 SCT018 PROB30 TEMPO 2715/2720 7000 -SHRA BKN015

Observacions i pronòstics meteorològics de més de 4000 aeroports (METAR i TAF).

Les estacions disponibles són els punts grocs i vermells al mapa.

Posi el ratolí al punt desitjat per veure el nom de l'estació.

Feu clic per veure les observacions i els pronòstics meteorològics.

Per canviar el mapa: feu clic els botons verds amb una creu de color negre per apropar; al botó verd amb un guió per allunyar la imatge; o en les fletxes verdes per a mapes adjacents.


METAR-TAF: